createdAt,value
2018-07-11T00:02:29.144Z,17.85
2018-07-11T00:07:22.271Z,17.82
2018-07-11T00:12:15.301Z,17.80
2018-07-11T00:17:14.817Z,17.76
2018-07-11T00:22:08.010Z,17.75
2018-07-11T00:27:01.161Z,17.73
2018-07-11T00:31:54.404Z,17.69
2018-07-11T00:36:47.454Z,17.63
2018-07-11T00:41:40.548Z,17.63
2018-07-11T00:46:33.676Z,17.64
2018-07-11T00:51:26.805Z,17.62
2018-07-11T00:56:19.832Z,17.53
2018-07-11T01:01:15.007Z,17.36
2018-07-11T01:06:08.348Z,17.20
2018-07-11T01:11:06.936Z,17.14
2018-07-11T01:16:00.040Z,17.19
2018-07-11T01:20:53.069Z,17.25
2018-07-11T01:25:46.136Z,17.21
2018-07-11T01:30:39.229Z,17.24
2018-07-11T01:35:32.213Z,17.30
2018-07-11T01:40:25.621Z,17.34
2018-07-11T01:45:18.697Z,17.35
2018-07-11T01:50:11.824Z,17.38
2018-07-11T01:55:05.049Z,17.40
2018-07-11T01:59:58.091Z,17.40
2018-07-11T02:04:51.175Z,17.41
2018-07-11T02:09:44.292Z,17.42
2018-07-11T02:14:37.920Z,17.40
2018-07-11T02:19:31.082Z,17.40
2018-07-11T02:24:24.346Z,17.35
2018-07-11T02:29:17.484Z,17.29
2018-07-11T02:34:11.198Z,17.27
2018-07-11T02:39:05.068Z,17.24
2018-07-11T02:43:58.160Z,17.21
2018-07-11T02:48:51.301Z,17.17
2018-07-11T02:53:44.356Z,17.07
2018-07-11T02:58:37.417Z,17.03
2018-07-11T03:03:30.481Z,17.03
2018-07-11T03:08:34.089Z,17.04
2018-07-11T03:13:27.109Z,17.08
2018-07-11T03:18:21.234Z,17.10
2018-07-11T03:23:14.341Z,17.11
2018-07-11T03:28:07.401Z,17.08
2018-07-11T03:33:00.496Z,17.11
2018-07-11T03:37:53.519Z,17.14
2018-07-11T03:42:46.743Z,17.15
2018-07-11T03:47:39.790Z,17.18
2018-07-11T03:52:32.868Z,17.15
2018-07-11T03:57:25.937Z,17.13
2018-07-11T04:02:19.453Z,17.11
2018-07-11T04:07:12.538Z,17.13
2018-07-11T04:12:05.566Z,17.14
2018-07-11T04:16:58.594Z,17.20
2018-07-11T04:21:52.021Z,17.18
2018-07-11T04:26:45.141Z,17.07
2018-07-11T04:31:38.271Z,16.97
2018-07-11T04:36:31.398Z,16.82
2018-07-11T04:41:24.411Z,16.77
2018-07-11T04:46:17.494Z,16.86
2018-07-11T04:51:10.816Z,16.92
2018-07-11T04:56:05.202Z,16.89
2018-07-11T05:00:58.474Z,16.81
2018-07-11T05:05:51.603Z,16.87
2018-07-11T05:10:44.743Z,16.96
2018-07-11T05:15:37.776Z,17.04
2018-07-11T05:20:30.828Z,17.13
2018-07-11T05:25:23.848Z,17.18
2018-07-11T05:30:16.890Z,17.20
2018-07-11T05:35:09.992Z,17.29
2018-07-11T05:40:03.028Z,17.38
2018-07-11T05:44:56.496Z,17.43
2018-07-11T05:49:49.632Z,17.45
2018-07-11T05:54:42.750Z,17.49
2018-07-11T05:59:35.819Z,17.52
2018-07-11T06:04:28.880Z,17.53
2018-07-11T06:09:21.995Z,17.58
2018-07-11T06:14:15.152Z,17.66
2018-07-11T06:19:08.364Z,17.70
2018-07-11T06:24:01.399Z,17.67
2018-07-11T06:28:54.406Z,17.61
2018-07-11T06:33:47.731Z,17.65
2018-07-11T06:38:40.775Z,17.70
2018-07-11T06:43:33.893Z,17.75
2018-07-11T06:48:26.958Z,17.80
2018-07-11T06:53:20.029Z,17.85
2018-07-11T06:58:12.955Z,17.92
2018-07-11T07:03:05.996Z,17.94
2018-07-11T07:07:59.168Z,18.00
2018-07-11T07:12:52.262Z,18.08
2018-07-11T07:17:45.443Z,18.15
2018-07-11T07:22:38.553Z,18.28
2018-07-11T07:27:31.599Z,18.38
2018-07-11T07:32:24.718Z,18.88
2018-07-11T07:37:17.818Z,19.18
2018-07-11T07:42:10.801Z,19.41
2018-07-11T07:47:03.851Z,19.57
2018-07-11T07:51:57.345Z,19.98
2018-07-11T07:56:50.841Z,20.32
2018-07-11T08:01:43.892Z,20.28
2018-07-11T08:06:36.933Z,20.63
2018-07-11T08:11:30.009Z,20.85
2018-07-11T08:16:23.232Z,20.96
2018-07-11T08:21:16.344Z,21.47
2018-07-11T08:26:21.337Z,22.57
2018-07-11T08:31:33.426Z,23.56
2018-07-11T08:36:45.264Z,24.13
2018-07-11T08:41:59.267Z,24.33
2018-07-11T08:51:21.117Z,24.59
2018-07-11T08:56:30.360Z,24.44
2018-07-11T09:01:49.856Z,24.26
2018-07-11T09:08:00.489Z,24.17
2018-07-11T09:13:02.856Z,24.21
2018-07-11T09:18:07.852Z,24.29
2018-07-11T09:24:00.965Z,24.24
2018-07-11T09:28:54.071Z,23.71
2018-07-11T09:33:47.049Z,23.39
2018-07-11T09:38:40.067Z,23.21
2018-07-11T09:43:33.376Z,23.16
2018-07-11T09:48:26.463Z,23.23
2018-07-11T09:53:19.542Z,23.45
2018-07-11T09:58:12.582Z,23.61
2018-07-11T10:03:06.342Z,23.62
2018-07-11T10:07:59.673Z,23.65
2018-07-11T10:12:52.773Z,23.82
2018-07-11T10:17:45.855Z,24.01
2018-07-11T10:22:39.213Z,24.01
2018-07-11T10:27:32.259Z,24.05
2018-07-11T10:32:25.516Z,24.06
2018-07-11T10:37:18.671Z,24.11
2018-07-11T10:42:11.727Z,24.50
2018-07-11T10:47:09.892Z,24.63
2018-07-11T10:52:02.872Z,24.52
2018-07-11T10:56:56.107Z,24.42
2018-07-11T11:01:49.182Z,24.43
2018-07-11T11:06:42.227Z,24.58
2018-07-11T11:11:35.377Z,24.53
2018-07-11T11:16:28.365Z,24.49
2018-07-11T11:21:21.552Z,24.48
2018-07-11T11:26:14.575Z,24.53
2018-07-11T11:31:07.728Z,24.58
2018-07-11T11:36:00.948Z,24.75
2018-07-11T11:40:54.044Z,24.94
2018-07-11T11:45:47.321Z,25.00
2018-07-11T11:50:40.353Z,25.06
2018-07-11T11:55:33.507Z,25.11
2018-07-11T12:00:26.572Z,25.13
2018-07-11T12:05:20.277Z,25.38
2018-07-11T12:10:13.572Z,25.39
2018-07-11T12:15:06.744Z,25.49
2018-07-11T12:20:00.058Z,25.78
2018-07-11T12:24:53.399Z,25.93
2018-07-11T12:29:46.722Z,25.85
2018-07-11T12:34:39.769Z,25.74
2018-07-11T12:39:33.404Z,25.58
2018-07-11T12:44:26.503Z,25.54
2018-07-11T12:49:19.737Z,25.76
2018-07-11T12:54:12.825Z,25.97
2018-07-11T12:59:05.934Z,26.02
2018-07-11T13:04:00.090Z,25.91
2018-07-11T13:08:53.248Z,25.83
2018-07-11T13:13:46.368Z,25.77
2018-07-11T13:18:39.457Z,25.88
2018-07-11T13:23:32.484Z,26.10
2018-07-11T13:28:25.684Z,26.21
2018-07-11T13:33:19.359Z,26.16
2018-07-11T13:38:13.384Z,26.15
2018-07-11T13:43:06.566Z,26.27
2018-07-11T13:48:00.653Z,26.21
2018-07-11T13:52:54.412Z,26.17
2018-07-11T13:57:47.585Z,26.14
2018-07-11T14:02:41.548Z,26.08
2018-07-11T14:07:34.725Z,26.00
2018-07-11T14:12:27.796Z,25.91
2018-07-11T14:17:20.864Z,25.84
2018-07-11T14:22:14.088Z,25.88
2018-07-11T14:27:07.189Z,26.03
2018-07-11T14:32:00.853Z,26.00
2018-07-11T14:36:54.061Z,25.92
2018-07-11T14:41:47.088Z,25.86
2018-07-11T14:46:40.129Z,25.81
2018-07-11T14:51:33.865Z,25.77
2018-07-11T14:56:26.900Z,25.69
2018-07-11T15:01:20.441Z,25.60
2018-07-11T15:06:14.458Z,25.51
2018-07-11T15:11:07.584Z,25.43
2018-07-11T15:16:00.661Z,25.07
2018-07-11T15:20:54.391Z,24.74
2018-07-11T15:25:47.452Z,24.62
2018-07-11T15:30:40.866Z,24.47
2018-07-11T15:35:33.951Z,24.35
2018-07-11T15:40:27.082Z,24.23
2018-07-11T15:45:20.207Z,24.12
2018-07-11T15:50:13.437Z,24.10
2018-07-11T15:55:06.483Z,24.18
2018-07-11T16:00:07.392Z,24.22
2018-07-11T16:05:00.560Z,24.22
2018-07-11T16:09:56.163Z,24.19
2018-07-11T16:14:49.213Z,24.13
2018-07-11T16:19:42.368Z,23.98
2018-07-11T16:24:35.939Z,23.87
2018-07-11T16:29:29.167Z,23.82
2018-07-11T16:34:22.288Z,23.67
2018-07-11T16:39:15.771Z,23.56
2018-07-11T16:44:09.010Z,23.50
2018-07-11T16:49:02.019Z,23.46
2018-07-11T16:53:55.775Z,23.39
2018-07-11T16:58:53.014Z,23.34
2018-07-11T17:03:46.040Z,23.33
2018-07-11T17:08:48.953Z,23.24
2018-07-11T17:13:57.909Z,23.20
2018-07-11T17:19:00.085Z,23.19
2018-07-11T17:23:59.765Z,23.20
2018-07-11T17:28:53.741Z,23.20
2018-07-11T17:33:46.980Z,23.19
2018-07-11T17:38:40.071Z,23.19
2018-07-11T17:43:34.915Z,23.17
2018-07-11T17:48:44.538Z,23.10
2018-07-11T17:53:43.613Z,23.07
2018-07-11T17:58:58.812Z,23.03
2018-07-11T18:04:07.391Z,23.03
2018-07-11T18:09:06.716Z,23.03
2018-07-11T18:13:59.885Z,23.03
2018-07-11T18:19:24.811Z,23.03
2018-07-11T18:25:36.966Z,23.01
2018-07-11T18:32:51.376Z,22.98
2018-07-11T18:37:59.288Z,22.93
2018-07-11T18:45:14.488Z,22.87
2018-07-11T18:52:28.295Z,22.81
2018-07-11T18:57:33.643Z,22.69
2018-07-11T19:04:43.362Z,22.63
2018-07-11T19:09:50.380Z,22.51
2018-07-11T19:14:53.611Z,22.40
2018-07-11T19:20:00.557Z,22.37
2018-07-11T19:27:17.264Z,22.33
2018-07-11T19:32:43.630Z,22.23
2018-07-11T19:37:54.774Z,22.12
2018-07-11T19:43:13.827Z,22.04
2018-07-11T19:48:54.019Z,21.96
2018-07-11T19:54:00.324Z,21.92
2018-07-11T19:58:53.627Z,21.86
2018-07-11T20:03:46.689Z,21.79
2018-07-11T20:08:39.799Z,21.71
2018-07-11T20:13:32.832Z,21.64
2018-07-11T20:18:25.917Z,21.57
2018-07-11T20:23:19.007Z,21.48
2018-07-11T20:28:12.315Z,21.38
2018-07-11T20:33:05.592Z,21.24
2018-07-11T20:37:58.632Z,21.07
2018-07-11T20:42:51.932Z,20.94
2018-07-11T20:47:45.515Z,20.81
2018-07-11T20:52:38.523Z,20.61
2018-07-11T20:57:31.554Z,20.47
2018-07-11T21:02:41.859Z,20.26
2018-07-11T21:09:33.893Z,20.17
2018-07-11T21:15:01.875Z,20.05
2018-07-11T21:19:54.976Z,19.86
2018-07-11T21:24:48.186Z,19.74
2018-07-11T21:29:41.209Z,19.60
2018-07-11T21:34:34.239Z,19.40
2018-07-11T21:39:27.355Z,19.37
2018-07-11T21:44:20.508Z,19.33
2018-07-11T21:49:18.074Z,19.26
2018-07-11T21:54:11.102Z,19.25
2018-07-11T21:59:04.445Z,19.24
2018-07-11T22:03:57.616Z,18.95
2018-07-11T22:08:50.639Z,18.57
2018-07-11T22:13:43.630Z,18.36
2018-07-11T22:18:45.464Z,18.23
2018-07-11T22:23:36.973Z,18.23
2018-07-11T22:28:28.550Z,18.17
2018-07-11T22:33:20.044Z,18.07
2018-07-11T22:38:12.195Z,18.12
2018-07-11T22:43:03.925Z,18.21
2018-07-11T22:47:55.752Z,18.28
2018-07-11T22:52:47.216Z,18.38
2018-07-11T22:57:38.677Z,18.37
2018-07-11T23:02:30.223Z,18.39
2018-07-11T23:07:21.748Z,18.43
2018-07-11T23:12:13.501Z,18.43
2018-07-11T23:17:04.955Z,18.43
2018-07-11T23:21:56.793Z,18.42
2018-07-11T23:26:48.313Z,18.42
2018-07-11T23:31:40.118Z,18.39
2018-07-11T23:36:32.057Z,18.38
2018-07-11T23:41:23.632Z,18.38
2018-07-11T23:46:15.131Z,18.39
2018-07-11T23:51:06.675Z,18.34
2018-07-11T23:55:58.165Z,18.32
